2TN9 weather

Baptist Memorial Hospital Heliport
Union City, Tennessee, United States

Public forecast

Using degrees Fahrenheit for public forecast. Weather courtesy of forecast.io.

METAR (pilot weather report)

Closest report is Everett-Stewart Regional Airport, 3.5 nm (6.6 km) ESE. Retrieved 2019/06/16 02:35 UTC (2 minutes ago):

KUCY 160235Z AUTO 19005KT 10SM CLR 25/21 A2988 RMK A01

TAF (pilot weather forecast)

Forecast is more than 12 hours old.

Closest forecast is Barkley Regional Airport, 41.0 nm (75.9 km) NNE. Retrieved 2019/06/15 00:24 UTC (1 day ago):

TAF KPAH 152320Z 1600/1624 21010KT P6SM FEW045 SCT200 FM160900 22009KT P6SM VCSH SCT045 BKN200 WS020/23040KT FM161500 22010G18KT P6SM SCT027 BKN120